Time;durP1;ratioP1;P1;durP2;ratioP2;P2;SDS_P1;SDS_P2;PMS_P1;PMS_P2;Temp;Humidity;BMP_temperature;BMP_pressure;BME280_temperature;BME280_humidity;BME280_pressure;Samples;Min_cycle;Max_cycle;Signal;HPM_P1;HPM_P2
2023/11/22 00:47:07;;;;;;;5.87;3.50;;;-0.90;99.90;;;;;;1845697;75;25232;-92
2023/11/22 00:54:25;;;;;;;3.97;3.03;;;-0.60;99.90;;;;;;1781115;80;25875;-92
2023/11/22 00:58:04;;;;;;;4.53;3.00;;;-0.10;99.90;;;;;;1857950;76;25280;-91
2023/11/22 01:51:30;;;;;;;6.40;4.07;;;0.60;99.90;;;;;;1981033;72;28180;-91
2023/11/22 02:22:04;;;;;;;7.47;4.57;;;0.40;99.90;;;;;;1917020;73;28836;-93
2023/11/22 02:33:28;;;;;;;9.07;5.53;;;0.40;99.90;;;;;;1989547;71;27029;-93
2023/11/22 04:21:22;;;;;;;4.83;2.70;;;0.40;99.90;;;;;;1833126;76;25307;-92
2023/11/22 04:24:40;;;;;;;4.73;3.37;;;0.40;99.90;;;;;;1905328;75;25816;-92
2023/11/22 04:27:51;;;;;;;5.40;3.30;;;0.40;99.90;;;;;;1916952;74;25212;-91
2023/11/22 04:30:46;;;;;;;3.47;2.60;;;0.30;99.90;;;;;;1888227;75;25229;-92
2023/11/22 04:34:00;;;;;;;6.37;2.63;;;0.30;99.90;;;;;;1891328;75;25242;-91
2023/11/22 04:37:08;;;;;;;3.23;1.70;;;0.40;99.90;;;;;;1886078;75;25240;-92
2023/11/22 04:44:03;;;;;;;3.40;2.27;;;0.40;99.90;;;;;;1878189;75;25794;-92
2023/11/22 04:47:16;;;;;;;4.63;2.90;;;0.40;99.90;;;;;;1862311;76;25298;-92
2023/11/22 05:19:40;;;;;;;4.73;3.70;;;1.00;99.90;;;;;;1917871;74;26506;-92
2023/11/22 05:38:41;;;;;;;3.23;2.53;;;1.60;99.90;;;;;;1959663;72;26525;-91
2023/11/22 08:50:26;;;;;;;4.40;2.50;;;3.40;99.90;;;;;;1942233;72;27120;-90
2023/11/22 08:53:36;;;;;;;3.33;2.03;;;3.40;99.90;;;;;;1925640;73;25224;-91
2023/11/22 08:56:46;;;;;;;4.33;2.27;;;3.30;99.90;;;;;;1889069;75;26401;-91
2023/11/22 09:02:37;;;;;;;4.57;2.33;;;3.30;99.90;;;;;;1950005;72;27044;-91
2023/11/22 09:06:02;;;;;;;5.50;2.90;;;3.30;99.90;;;;;;1891403;75;25264;-90
2023/11/22 09:11:53;;;;;;;6.03;2.33;;;3.30;99.90;;;;;;1946996;72;27573;-90
2023/11/22 09:14:53;;;;;;;4.73;2.50;;;3.40;99.90;;;;;;1922534;73;25266;-91
2023/11/22 09:20:36;;;;;;;2.07;1.87;;;3.40;99.90;;;;;;1952626;72;28729;-89
2023/11/22 09:24:05;;;;;;;5.33;2.57;;;3.40;99.90;;;;;;1922402;73;25243;-89
2023/11/22 09:30:38;;;;;;;6.03;2.80;;;3.40;99.90;;;;;;1976225;71;27486;-91
2023/11/22 09:33:40;;;;;;;4.70;2.40;;;3.50;99.90;;;;;;1968922;72;25200;-90
2023/11/22 09:36:39;;;;;;;8.57;2.90;;;3.50;99.90;;;;;;1939792;72;25176;-90
2023/11/22 09:39:39;;;;;;;6.40;2.53;;;3.50;99.90;;;;;;1979261;72;25273;-90
2023/11/22 09:42:30;;;;;;;4.63;2.53;;;3.40;99.90;;;;;;1972824;71;25279;-90
2023/11/22 09:46:21;;;;;;;3.90;1.70;;;3.40;99.90;;;;;;1987480;71;25241;-90
2023/11/22 09:52:36;;;;;;;3.90;1.80;;;3.30;99.90;;;;;;1936191;72;27549;-90
2023/11/22 09:55:37;;;;;;;5.40;1.90;;;3.30;99.90;;;;;;1912367;74;25325;-89
2023/11/22 09:58:29;;;;;;;2.87;1.70;;;3.30;99.90;;;;;;1904323;74;25291;-90
2023/11/22 10:01:19;;;;;;;2.33;1.63;;;3.30;99.90;;;;;;1920440;73;25611;-89
2023/11/22 10:04:20;;;;;;;2.73;1.60;;;3.30;99.90;;;;;;1901581;74;25239;-90
2023/11/22 10:07:29;;;;;;;4.77;2.07;;;3.40;99.90;;;;;;1905505;74;25195;-89
2023/11/22 10:10:22;;;;;;;1.50;1.40;;;3.40;99.90;;;;;;1913358;73;25221;-89
2023/11/22 10:13:14;;;;;;;2.23;1.67;;;3.40;99.90;;;;;;1889026;74;25579;-89
2023/11/22 10:16:14;;;;;;;9.50;2.40;;;3.50;99.90;;;;;;1897757;75;25681;-89
2023/11/22 10:19:06;;;;;;;4.03;1.80;;;3.50;99.90;;;;;;1899452;74;25264;-89
2023/11/22 10:22:08;;;;;;;4.83;2.00;;;3.50;99.90;;;;;;1908220;73;25321;-90
2023/11/22 10:25:07;;;;;;;2.67;1.93;;;3.60;99.90;;;;;;1898185;74;25156;-89
2023/11/22 10:28:08;;;;;;;2.57;1.80;;;3.70;99.90;;;;;;1894760;73;25360;-90
2023/11/22 10:31:05;;;;;;;5.60;1.17;;;3.70;99.90;;;;;;1903480;73;25238;-89
2023/11/22 10:33:57;;;;;;;4.07;2.00;;;3.70;99.90;;;;;;1905336;73;25220;-90
2023/11/22 10:36:47;;;;;;;2.83;1.70;;;3.70;99.90;;;;;;1908472;73;25284;-90
2023/11/22 10:39:36;;;;;;;3.67;1.97;;;3.80;99.90;;;;;;1901920;74;25236;-90
2023/11/22 10:42:25;;;;;;;1.73;1.27;;;3.80;99.90;;;;;;1911607;73;25258;-89
2023/11/22 11:02:34;;;;;;;2.37;1.50;;;4.00;99.90;;;;;;1933687;72;27567;-90
2023/11/22 11:05:28;;;;;;;6.97;1.93;;;4.00;99.90;;;;;;1907371;73;25191;-90
2023/11/22 11:12:13;;;;;;;2.90;1.50;;;4.00;99.90;;;;;;1978983;71;28231;-90
2023/11/22 11:15:21;;;;;;;4.17;2.00;;;4.00;99.90;;;;;;1963755;72;25886;-90
2023/11/22 11:18:16;;;;;;;4.00;1.80;;;4.00;99.90;;;;;;2046527;69;25228;-90
2023/11/22 11:21:11;;;;;;;1.83;1.30;;;4.00;99.90;;;;;;2034840;69;25155;-90
2023/11/22 11:24:03;;;;;;;2.60;1.70;;;4.00;99.90;;;;;;2037040;69;25311;-90
2023/11/22 11:27:04;;;;;;;7.83;2.10;;;4.00;99.90;;;;;;2040796;69;25670;-90
2023/11/22 11:32:47;;;;;;;4.43;2.13;;;4.00;99.90;;;;;;1944350;72;27528;-90
2023/11/22 11:35:41;;;;;;;4.27;1.37;;;4.00;99.90;;;;;;1921607;72;25775;-90
2023/11/22 11:38:35;;;;;;;4.77;2.00;;;4.00;99.90;;;;;;1885075;73;25255;-89
2023/11/22 11:44:12;;;;;;;2.83;1.30;;;4.00;99.90;;;;;;1936185;72;27078;-91
2023/11/22 11:47:03;;;;;;;4.00;2.17;;;4.00;99.90;;;;;;1901846;73;25315;-90
2023/11/22 11:52:50;;;;;;;3.77;1.57;;;4.10;99.90;;;;;;1915559;72;27143;-90
2023/11/22 11:55:59;;;;;;;2.77;2.07;;;4.10;99.90;;;;;;1915312;74;25252;-90
2023/11/22 11:58:51;;;;;;;4.03;1.40;;;4.00;99.90;;;;;;1886782;75;25218;-90
2023/11/22 12:01:44;;;;;;;6.07;2.00;;;4.10;99.90;;;;;;1916390;75;25251;-90
2023/11/22 12:04:34;;;;;;;1.77;1.50;;;4.10;99.90;;;;;;1914238;74;25180;-90
2023/11/22 12:07:23;;;;;;;3.73;1.60;;;4.20;99.90;;;;;;1912338;75;25305;-90
2023/11/22 12:10:13;;;;;;;3.10;2.17;;;4.20;99.90;;;;;;1922358;73;25215;-91
2023/11/22 12:13:02;;;;;;;1.20;1.13;;;4.20;99.90;;;;;;1878414;75;25264;-90
2023/11/22 12:15:54;;;;;;;3.23;1.80;;;4.20;99.90;;;;;;1885830;74;25246;-90
2023/11/22 12:18:44;;;;;;;5.13;1.63;;;4.20;99.90;;;;;;1884675;74;25551;-90
2023/11/22 12:21:33;;;;;;;3.20;1.67;;;4.20;99.90;;;;;;1901349;73;25694;-90
2023/11/22 12:24:22;;;;;;;4.57;2.10;;;4.20;99.90;;;;;;1914127;74;25771;-90
2023/11/22 12:27:12;;;;;;;2.13;1.40;;;4.30;99.90;;;;;;1916310;74;25281;-90
2023/11/22 12:30:02;;;;;;;7.90;1.60;;;4.30;99.90;;;;;;1893301;75;25269;-90
2023/11/22 12:35:34;;;;;;;3.53;1.43;;;4.20;99.90;;;;;;1936451;72;27153;-90
2023/11/22 12:38:26;;;;;;;5.77;1.50;;;4.20;99.90;;;;;;1918470;73;25161;-90
2023/11/22 12:41:17;;;;;;;6.20;1.93;;;4.20;99.90;;;;;;1933703;73;25298;-90
2023/11/22 12:44:07;;;;;;;4.23;1.67;;;4.30;99.90;;;;;;1894896;73;25299;-90
2023/11/22 12:46:57;;;;;;;3.40;1.80;;;4.30;99.90;;;;;;1897802;75;25229;-90
2023/11/22 12:49:47;;;;;;;3.27;1.97;;;4.30;99.90;;;;;;1926969;73;25308;-90
2023/11/22 12:52:36;;;;;;;2.43;1.50;;;4.40;99.90;;;;;;1910258;75;25188;-90
2023/11/22 12:55:25;;;;;;;1.43;1.33;;;4.40;99.90;;;;;;1901003;75;25150;-90
2023/11/22 12:58:14;;;;;;;3.53;1.57;;;4.40;99.90;;;;;;1890578;75;25233;-90
2023/11/22 13:01:03;;;;;;;1.90;1.33;;;4.40;99.90;;;;;;1892638;73;25182;-90
2023/11/22 13:03:56;;;;;;;2.00;1.20;;;4.40;99.90;;;;;;1901768;75;25213;-91
2023/11/22 13:06:45;;;;;;;3.33;1.60;;;4.40;99.90;;;;;;1906133;73;25213;-90
2023/11/22 13:09:35;;;;;;;2.23;1.30;;;4.40;99.90;;;;;;1867865;75;25680;-90
2023/11/22 13:15:16;;;;;;;3.27;1.50;;;4.50;99.90;;;;;;1942556;72;27661;-90
2023/11/22 13:18:06;;;;;;;2.50;1.40;;;4.50;99.90;;;;;;1889799;73;25278;-91
2023/11/22 13:23:41;;;;;;;2.13;1.27;;;4.50;99.90;;;;;;1936865;74;27882;-91
2023/11/22 13:26:30;;;;;;;3.70;2.13;;;4.50;99.90;;;;;;1886816;75;25685;-90
2023/11/22 13:29:19;;;;;;;2.33;1.70;;;4.50;99.90;;;;;;1909627;73;25257;-91
2023/11/22 13:32:09;;;;;;;5.10;1.40;;;4.50;99.90;;;;;;1900590;75;25696;-91
2023/11/22 13:35:00;;;;;;;3.43;1.47;;;4.50;99.90;;;;;;1908591;75;25776;-91
2023/11/22 13:51:24;;;;;;;6.30;1.63;;;4.50;99.90;;;;;;1979800;71;27032;-91
2023/11/22 14:11:10;;;;;;;3.00;1.00;;;5.00;99.90;;;;;;1944434;72;27578;-90
2023/11/22 14:14:04;;;;;;;3.67;1.10;;;4.90;99.90;;;;;;1925558;73;25231;-90
2023/11/22 14:16:59;;;;;;;1.33;0.90;;;4.90;99.90;;;;;;1920220;73;25227;-90
2023/11/22 14:19:48;;;;;;;1.33;0.93;;;4.90;99.90;;;;;;1918261;73;25284;-90
2023/11/22 14:22:39;;;;;;;1.50;1.07;;;4.90;99.90;;;;;;1917507;73;25328;-90
2023/11/22 14:25:53;;;;;;;1.60;0.80;;;4.90;99.90;;;;;;1938268;73;25313;-90
2023/11/22 14:29:09;;;;;;;7.13;1.20;;;4.90;99.90;;;;;;1927893;73;25195;-91
2023/11/22 14:32:03;;;;;;;0.90;0.63;;;4.80;99.90;;;;;;1918683;73;25240;-90
2023/11/22 14:34:58;;;;;;;15.37;1.13;;;4.80;99.90;;;;;;1918527;73;25376;-90
2023/11/22 15:05:20;;;;;;;0.60;0.60;;;4.90;99.90;;;;;;1848737;77;27700;-91
2023/11/22 15:26:28;;;;;;;0.90;0.90;;;5.00;99.90;;;;;;1955801;71;27035;-91
2023/11/22 15:29:17;;;;;;;6.87;0.90;;;5.10;99.90;;;;;;1947956;72;25318;-90
2023/11/22 15:32:06;;;;;;;2.43;0.90;;;5.10;99.90;;;;;;1993595;71;25269;-91
2023/11/22 15:34:55;;;;;;;0.80;0.80;;;5.10;99.90;;;;;;1984687;71;25210;-91
2023/11/22 15:37:43;;;;;;;4.77;1.03;;;5.20;99.90;;;;;;1979299;71;25639;-91
2023/11/22 15:40:32;;;;;;;3.03;0.90;;;5.20;99.90;;;;;;1957584;72;25229;-91
2023/11/22 15:43:21;;;;;;;3.03;0.67;;;5.20;99.90;;;;;;1955200;72;25344;-91
2023/11/22 15:46:14;;;;;;;1.50;1.13;;;5.20;99.90;;;;;;1975732;72;25192;-92
2023/11/22 15:49:04;;;;;;;1.13;0.73;;;5.30;99.90;;;;;;1944124;73;25200;-92
2023/11/22 15:51:54;;;;;;;3.57;1.30;;;5.30;99.90;;;;;;1951448;73;25207;-92
2023/11/22 15:54:43;;;;;;;1.07;0.60;;;5.40;99.90;;;;;;1939420;73;25202;-91
2023/11/22 16:00:21;;;;;;;3.73;1.20;;;5.40;99.90;;;;;;1950461;72;26940;-92
2023/11/22 16:03:17;;;;;;;5.40;1.10;;;5.50;99.90;;;;;;1954676;72;25216;-92
2023/11/22 16:06:02;;;;;;;0.80;0.80;;;5.50;99.90;;;;;;1966795;72;25683;-92
2023/11/22 16:08:50;;;;;;;3.13;1.03;;;5.50;99.90;;;;;;1933029;73;25315;-92
2023/11/22 16:11:39;;;;;;;3.83;1.10;;;5.50;99.90;;;;;;1935228;73;25254;-92
2023/11/22 16:14:29;;;;;;;2.73;1.00;;;5.50;99.90;;;;;;1934709;73;25258;-92
2023/11/22 16:17:19;;;;;;;5.80;1.10;;;5.50;99.90;;;;;;1920168;73;25731;-92
2023/11/22 16:20:14;;;;;;;2.43;1.00;;;5.50;99.90;;;;;;1928615;73;26543;-92
2023/11/22 16:23:04;;;;;;;4.47;1.20;;;5.60;99.90;;;;;;1942689;73;25738;-92
2023/11/22 16:25:53;;;;;;;5.60;1.13;;;5.50;99.90;;;;;;1932847;73;25154;-92
2023/11/22 16:28:42;;;;;;;3.60;1.30;;;5.50;99.90;;;;;;1906325;74;25293;-92
2023/11/22 16:31:31;;;;;;;1.93;0.90;;;5.50;99.90;;;;;;1862589;76;25228;-92
2023/11/22 16:34:19;;;;;;;1.27;1.10;;;5.60;99.90;;;;;;1885275;75;25722;-92
2023/11/22 16:37:08;;;;;;;3.37;1.20;;;5.50;99.90;;;;;;1888837;75;25171;-91
2023/11/22 16:39:56;;;;;;;2.80;0.80;;;5.50;99.90;;;;;;1888125;75;25970;-92
2023/11/22 16:56:30;;;;;;;2.70;0.60;;;5.60;99.90;;;;;;1867761;75;27007;-90
2023/11/22 17:13:19;;;;;;;1.40;0.87;;;5.70;99.90;;;;;;1929636;71;27059;-92
2023/11/22 18:21:21;;;;;;;3.00;0.80;;;6.40;99.90;;;;;;1925832;72;27022;-90
2023/11/22 18:24:10;;;;;;;0.63;0.40;;;6.40;99.90;;;;;;1850472;75;25268;-92
2023/11/22 18:26:59;;;;;;;0.53;0.50;;;6.40;99.90;;;;;;1849778;75;25241;-90
2023/11/22 18:29:48;;;;;;;2.33;0.50;;;6.30;99.90;;;;;;1843312;75;25277;-92
2023/11/22 18:32:37;;;;;;;0.70;0.40;;;6.30;99.90;;;;;;1865351;75;25212;-92
2023/11/22 18:35:25;;;;;;;0.50;0.50;;;6.30;99.90;;;;;;1852559;75;25376;-89
2023/11/22 18:38:15;;;;;;;0.30;0.30;;;6.30;99.90;;;;;;1854939;75;25261;-90
2023/11/22 18:41:06;;;;;;;1.20;0.67;;;6.40;99.90;;;;;;1842456;75;25387;-92
2023/11/22 18:43:55;;;;;;;2.00;0.40;;;6.40;99.90;;;;;;1886036;75;25286;-91
2023/11/22 18:46:44;;;;;;;0.33;0.30;;;6.30;99.90;;;;;;1883004;75;25214;-90
2023/11/22 18:52:18;;;;;;;2.33;0.50;;;6.40;99.90;;;;;;1954835;71;27671;-90
2023/11/22 18:55:10;;;;;;;0.90;0.50;;;6.40;99.90;;;;;;1939948;72;25207;-92
2023/11/22 18:57:58;;;;;;;1.10;0.43;;;6.40;99.90;;;;;;1952424;72;25754;-92
2023/11/22 19:00:48;;;;;;;1.00;0.40;;;6.40;99.90;;;;;;1940504;73;25329;-90
2023/11/22 19:06:19;;;;;;;1.47;0.60;;;6.40;99.90;;;;;;1936248;72;27972;-91
2023/11/22 19:09:11;;;;;;;1.30;0.80;;;6.40;99.90;;;;;;1912350;74;25251;-92
2023/11/22 19:11:58;;;;;;;0.50;0.47;;;6.50;99.90;;;;;;1905216;74;25290;-91
2023/11/22 19:14:55;;;;;;;1.57;0.60;;;6.50;99.90;;;;;;1903644;73;25808;-92
2023/11/22 19:17:44;;;;;;;1.90;0.70;;;6.50;99.90;;;;;;1908933;73;25880;-90
2023/11/22 19:20:32;;;;;;;2.90;0.73;;;6.60;99.90;;;;;;1901348;73;25642;-90
2023/11/22 19:23:21;;;;;;;1.63;0.80;;;6.60;99.90;;;;;;1919876;73;25241;-91
2023/11/22 19:26:09;;;;;;;2.83;0.90;;;6.60;99.90;;;;;;1928217;73;25701;-91
2023/11/22 19:28:58;;;;;;;4.43;1.30;;;6.60;99.90;;;;;;1912885;73;25232;-91
2023/11/22 19:31:47;;;;;;;3.53;0.73;;;6.60;99.90;;;;;;1919847;73;25566;-91
2023/11/22 19:34:36;;;;;;;4.97;1.13;;;6.60;99.90;;;;;;1900998;73;25230;-91
2023/11/22 19:37:27;;;;;;;2.83;0.77;;;6.60;99.90;;;;;;1898303;74;25268;-91
2023/11/22 19:40:15;;;;;;;4.77;1.20;;;6.70;99.90;;;;;;1853072;75;25213;-91
2023/11/22 19:45:44;;;;;;;4.67;1.20;;;6.60;99.90;;;;;;1977470;71;27582;-92
2023/11/22 19:51:25;;;;;;;9.60;1.43;;;6.50;99.90;;;;;;1950171;72;26898;-90
2023/11/22 19:54:14;;;;;;;6.63;1.67;;;6.50;99.90;;;;;;1946280;72;25182;-92
2023/11/22 19:57:03;;;;;;;10.47;2.67;;;6.50;99.90;;;;;;1923831;72;25196;-92
2023/11/22 19:59:56;;;;;;;6.13;1.37;;;6.50;99.90;;;;;;1916272;73;25275;-92
2023/11/22 20:02:44;;;;;;;11.57;1.53;;;6.40;99.90;;;;;;1924447;73;26436;-92
2023/11/22 20:05:34;;;;;;;9.50;2.07;;;6.40;99.90;;;;;;1890581;75;25255;-92
2023/11/22 20:08:23;;;;;;;14.50;1.83;;;6.50;99.90;;;;;;1842231;76;25701;-91
2023/11/22 20:11:13;;;;;;;11.57;1.70;;;6.50;99.90;;;;;;1883781;75;25171;-89
2023/11/22 20:14:02;;;;;;;12.67;1.90;;;6.40;99.90;;;;;;1896371;73;25229;-90
2023/11/22 20:16:50;;;;;;;7.63;1.70;;;6.50;99.90;;;;;;1863740;76;25846;-92
2023/11/22 20:19:39;;;;;;;9.77;2.00;;;6.60;99.90;;;;;;1859134;75;25317;-91
2023/11/22 20:22:29;;;;;;;11.53;1.83;;;6.60;99.90;;;;;;1860970;75;25250;-91
2023/11/22 20:25:18;;;;;;;6.30;1.13;;;6.60;99.90;;;;;;1901088;75;25235;-91
2023/11/22 20:30:53;;;;;;;7.57;1.40;;;6.70;99.90;;;;;;1954534;72;27037;-89
2023/11/22 20:33:43;;;;;;;11.30;1.40;;;6.70;99.90;;;;;;1925925;73;25296;-92
2023/11/22 20:36:32;;;;;;;6.80;1.10;;;6.70;99.90;;;;;;1934532;72;25232;-91
2023/11/22 20:42:13;;;;;;;7.43;1.47;;;6.70;99.90;;;;;;1943559;72;27506;-91
2023/11/22 20:47:56;;;;;;;3.23;1.10;;;6.80;99.90;;;;;;1942363;72;27042;-90
2023/11/22 20:50:44;;;;;;;3.03;1.03;;;6.80;99.90;;;;;;1890028;75;25178;-90
2023/11/22 20:53:33;;;;;;;7.00;1.60;;;6.80;99.90;;;;;;1866134;75;25270;-90
2023/11/22 20:56:21;;;;;;;10.13;1.83;;;6.80;99.90;;;;;;1888659;75;25172;-90
2023/11/22 20:59:10;;;;;;;5.30;1.30;;;6.70;99.90;;;;;;1889017;75;25233;-90
2023/11/22 21:01:58;;;;;;;11.83;1.50;;;6.70;99.90;;;;;;1894913;75;25289;-90
2023/11/22 21:04:48;;;;;;;11.83;1.50;;;6.80;99.90;;;;;;1896376;75;25225;-90
2023/11/22 21:07:37;;;;;;;5.90;1.20;;;6.70;99.90;;;;;;1887122;75;25158;-90
2023/11/22 21:10:26;;;;;;;3.03;1.20;;;6.80;99.90;;;;;;1885495;75;25211;-90
2023/11/22 21:16:07;;;;;;;8.60;1.30;;;6.70;99.90;;;;;;1948851;72;26905;-91
2023/11/22 21:21:47;;;;;;;12.03;1.57;;;6.60;99.90;;;;;;1956262;72;26999;-91
2023/11/22 21:24:35;;;;;;;10.37;1.27;;;6.60;99.90;;;;;;1935586;73;25209;-91
2023/11/22 21:27:24;;;;;;;9.20;1.30;;;6.60;99.90;;;;;;1925006;73;25218;-91
2023/11/22 21:30:13;;;;;;;3.53;1.10;;;6.50;99.90;;;;;;1938627;73;25351;-91
2023/11/22 21:33:02;;;;;;;13.03;2.20;;;6.50;99.90;;;;;;1921713;73;25258;-91
2023/11/22 21:35:51;;;;;;;15.33;2.83;;;6.50;99.90;;;;;;1928137;73;25207;-91
2023/11/22 21:38:39;;;;;;;8.57;2.33;;;6.50;99.90;;;;;;1936368;73;25646;-91
2023/11/22 21:41:28;;;;;;;4.53;1.50;;;6.50;99.90;;;;;;1931649;73;26632;-91
2023/11/22 21:44:17;;;;;;;4.77;1.27;;;6.50;99.90;;;;;;1915501;73;25324;-91
2023/11/22 21:49:59;;;;;;;5.07;0.90;;;6.60;99.90;;;;;;1930064;72;27600;-91
2023/11/22 21:52:47;;;;;;;9.67;1.63;;;6.60;99.90;;;;;;1909306;73;25302;-91
2023/11/22 21:58:26;;;;;;;3.93;1.07;;;6.50;99.90;;;;;;1956893;72;27049;-91
2023/11/22 22:04:07;;;;;;;4.27;1.00;;;6.40;99.90;;;;;;1955253;72;27071;-90
2023/11/22 22:06:56;;;;;;;6.60;1.40;;;6.40;99.90;;;;;;1948774;72;25174;-91
2023/11/22 22:09:45;;;;;;;6.57;1.37;;;6.40;99.90;;;;;;1938462;72;25242;-90
2023/11/22 22:12:38;;;;;;;9.17;4.00;;;6.30;99.90;;;;;;1925207;73;25252;-89
2023/11/22 22:15:26;;;;;;;18.00;6.27;;;6.30;99.90;;;;;;1927854;73;25295;-89
2023/11/22 22:18:14;;;;;;;25.93;7.87;;;6.30;99.90;;;;;;1920144;73;25219;-89
2023/11/22 22:21:03;;;;;;;26.00;8.90;;;6.40;99.90;;;;;;1916734;73;25304;-89
2023/11/22 22:23:52;;;;;;;22.63;7.17;;;6.40;99.90;;;;;;1931433;72;25181;-89
2023/11/22 22:26:41;;;;;;;15.13;5.47;;;6.40;99.90;;;;;;1937367;73;25836;-89
2023/11/22 22:29:30;;;;;;;24.87;7.27;;;6.50;99.90;;;;;;1929660;73;25280;-89
2023/11/22 22:32:18;;;;;;;18.63;5.30;;;6.50;99.90;;;;;;1928452;73;25282;-89
2023/11/22 22:35:08;;;;;;;13.07;2.67;;;6.50;99.90;;;;;;1936361;73;25548;-89
2023/11/22 22:37:57;;;;;;;6.30;2.53;;;6.50;99.90;;;;;;1926134;73;25242;-89
2023/11/22 22:40:45;;;;;;;11.63;3.13;;;6.50;99.90;;;;;;1947064;72;25252;-89
2023/11/22 22:43:34;;;;;;;10.27;3.10;;;6.40;99.90;;;;;;1911829;73;25255;-89
2023/11/22 22:46:22;;;;;;;13.13;4.03;;;6.40;99.90;;;;;;1909130;73;25647;-89
2023/11/22 22:52:26;;;;;;;14.17;4.27;;;6.40;99.90;;;;;;1967898;71;27040;-89
2023/11/22 22:55:15;;;;;;;16.97;6.20;;;6.40;99.90;;;;;;1969216;72;25254;-91
2023/11/22 22:58:04;;;;;;;21.60;8.37;;;6.40;99.90;;;;;;1977064;70;25219;-90
2023/11/22 23:00:52;;;;;;;21.80;7.03;;;6.40;99.90;;;;;;1969116;70;25216;-90
2023/11/22 23:03:41;;;;;;;12.87;4.83;;;6.40;99.90;;;;;;1986249;72;25234;-90
2023/11/22 23:06:30;;;;;;;10.40;3.10;;;6.40;99.90;;;;;;2010777;70;25288;-90
2023/11/22 23:09:21;;;;;;;11.30;3.40;;;6.40;99.90;;;;;;1998190;70;25182;-89
2023/11/22 23:12:09;;;;;;;9.93;2.10;;;6.40;99.90;;;;;;2015816;70;25614;-90
2023/11/22 23:14:58;;;;;;;10.50;2.33;;;6.40;99.90;;;;;;2007572;70;25706;-90
2023/11/22 23:17:47;;;;;;;11.03;2.27;;;6.40;99.90;;;;;;2004945;70;25221;-90
2023/11/22 23:20:39;;;;;;;13.03;2.57;;;6.40;99.90;;;;;;2012613;70;25729;-90
2023/11/22 23:23:27;;;;;;;6.13;1.70;;;6.40;99.90;;;;;;2005361;70;25746;-90
2023/11/22 23:26:15;;;;;;;9.07;2.20;;;6.40;99.90;;;;;;2002554;70;25295;-89
2023/11/22 23:31:48;;;;;;;6.43;1.33;;;6.40;99.90;;;;;;1947586;72;27099;-88
2023/11/22 23:37:28;;;;;;;10.57;3.40;;;6.40;99.90;;;;;;1947062;72;27061;-90
2023/11/22 23:40:21;;;;;;;19.53;5.23;;;6.40;99.90;;;;;;1924745;72;25729;-90
2023/11/22 23:43:08;;;;;;;22.17;6.80;;;6.50;99.90;;;;;;1909507;75;25314;-90
2023/11/22 23:45:57;;;;;;;25.33;8.03;;;6.50;99.90;;;;;;1913990;73;25209;-90
2023/11/22 23:48:45;;;;;;;9.87;3.63;;;6.60;99.90;;;;;;1914657;75;25726;-90
2023/11/22 23:51:35;;;;;;;7.33;2.83;;;6.60;99.90;;;;;;1915040;73;25280;-90
2023/11/22 23:54:24;;;;;;;12.27;4.67;;;6.60;99.90;;;;;;1919515;73;25282;-91
2023/11/22 23:57:12;;;;;;;15.70;6.57;;;6.60;99.90;;;;;;1906525;73;25171;-89
